Time;durP1;ratioP1;P1;durP2;ratioP2;P2;SDS_P1;SDS_P2;PMS_P1;PMS_P2;Temp;Humidity;BMP_temperature;BMP_pressure;BME280_temperature;BME280_humidity;BME280_pressure;Samples;Min_cycle;Max_cycle;Signal;HPM_P1;HPM_P2
2022/09/20 00:01:12;;;;;;;4.43;2.30;;;15.80;51.80;;;;;;5032865;28;20170;-42
2022/09/20 00:03:41;;;;;;;2.38;2.00;;;15.80;51.90;;;;;;5033087;28;20234;-42
2022/09/20 00:06:09;;;;;;;2.88;1.80;;;15.70;51.80;;;;;;5032147;28;20197;-42
2022/09/20 00:08:35;;;;;;;4.47;2.28;;;15.60;51.90;;;;;;5032593;28;20204;-42
2022/09/20 00:11:10;;;;;;;4.97;1.90;;;15.60;51.90;;;;;;5032632;28;20243;-42
2022/09/20 00:13:37;;;;;;;4.43;1.20;;;15.60;52.10;;;;;;5032690;28;20535;-42
2022/09/20 00:16:05;;;;;;;2.58;1.15;;;15.50;52.00;;;;;;5014496;28;20529;-42
2022/09/20 00:18:31;;;;;;;2.50;1.40;;;15.50;52.00;;;;;;5032443;28;20209;-42
2022/09/20 00:20:57;;;;;;;1.80;1.03;;;15.50;52.00;;;;;;5032396;28;20177;-42
2022/09/20 00:23:22;;;;;;;1.73;1.23;;;15.50;52.10;;;;;;5032490;28;20409;-42
2022/09/20 00:26:00;;;;;;;2.53;1.73;;;15.50;51.90;;;;;;5032130;28;20182;-42
2022/09/20 00:28:27;;;;;;;2.92;1.20;;;15.60;52.00;;;;;;5032372;28;20236;-42
2022/09/20 00:30:54;;;;;;;2.65;1.55;;;15.50;52.00;;;;;;5031414;28;20201;-41
2022/09/20 00:33:21;;;;;;;1.90;1.50;;;15.50;52.10;;;;;;5032324;28;20181;-42
2022/09/20 00:35:48;;;;;;;2.13;1.70;;;15.50;52.00;;;;;;5031662;28;20166;-42
2022/09/20 00:38:14;;;;;;;4.80;1.50;;;15.50;52.00;;;;;;5032324;28;20200;-42
2022/09/20 00:40:41;;;;;;;3.97;1.90;;;15.50;52.30;;;;;;5032320;28;20181;-42
2022/09/20 00:43:15;;;;;;;3.75;1.52;;;15.50;52.30;;;;;;5032172;28;20665;-41
2022/09/20 00:45:45;;;;;;;3.75;1.58;;;15.50;52.40;;;;;;5031619;28;20212;-41
2022/09/20 00:48:29;;;;;;;2.72;1.65;;;15.50;52.30;;;;;;5032301;28;20190;-42
2022/09/20 00:51:09;;;;;;;3.17;1.85;;;15.50;52.30;;;;;;5032066;28;20185;-42
2022/09/20 00:53:43;;;;;;;2.08;1.50;;;15.50;52.40;;;;;;5032112;28;20193;-41
2022/09/20 00:56:16;;;;;;;2.42;1.40;;;15.50;52.40;;;;;;5031505;28;20673;-42
2022/09/20 00:58:54;;;;;;;2.63;1.70;;;15.50;52.50;;;;;;5032015;28;20186;-42
2022/09/20 01:01:20;;;;;;;3.00;2.05;;;15.50;52.50;;;;;;5032308;28;20177;-42
2022/09/20 01:03:48;;;;;;;3.33;1.60;;;15.50;52.60;;;;;;5031920;28;20174;-42
2022/09/20 01:06:16;;;;;;;2.97;1.55;;;15.60;52.60;;;;;;5031390;28;20209;-42
2022/09/20 01:08:47;;;;;;;3.75;1.60;;;15.60;52.70;;;;;;5031896;28;20677;-42
2022/09/20 01:11:12;;;;;;;2.58;1.80;;;15.50;52.50;;;;;;5031826;28;20538;-42
2022/09/20 01:13:38;;;;;;;4.33;2.10;;;15.50;52.60;;;;;;5031817;28;20185;-42
2022/09/20 01:16:05;;;;;;;2.37;1.50;;;15.50;52.70;;;;;;5031317;28;20165;-42
2022/09/20 01:18:32;;;;;;;3.47;1.80;;;15.50;52.50;;;;;;5031649;28;20209;-42
2022/09/20 01:20:59;;;;;;;3.03;2.00;;;15.60;52.60;;;;;;5031792;28;20182;-42
2022/09/20 01:23:43;;;;;;;6.78;2.00;;;15.60;52.50;;;;;;5031706;28;20177;-42
2022/09/20 01:26:32;;;;;;;2.53;1.40;;;15.60;52.50;;;;;;5031265;28;20636;-42
2022/09/20 01:29:22;;;;;;;1.52;1.15;;;15.60;52.50;;;;;;5032003;28;20289;-42
2022/09/20 01:31:54;;;;;;;2.00;1.40;;;15.60;52.50;;;;;;5031861;28;20589;-42
2022/09/20 01:34:44;;;;;;;4.93;2.17;;;15.60;52.70;;;;;;5031691;28;20228;-42
2022/09/20 01:37:25;;;;;;;3.85;1.85;;;15.60;52.70;;;;;;5031078;28;20661;-42
2022/09/20 01:39:54;;;;;;;2.80;1.88;;;15.60;52.70;;;;;;5031681;28;20220;-42
2022/09/20 01:42:30;;;;;;;2.92;1.60;;;15.60;52.70;;;;;;5032919;28;20707;-42
2022/09/20 01:45:00;;;;;;;3.53;1.70;;;15.60;52.50;;;;;;5035595;28;20162;-42
2022/09/20 01:47:39;;;;;;;2.92;1.55;;;15.60;52.60;;;;;;5034835;28;20162;-42
2022/09/20 01:50:59;;;;;;;6.93;2.45;;;15.60;52.60;;;;;;5035617;28;20184;-42
2022/09/20 01:53:31;;;;;;;3.05;2.00;;;15.60;52.50;;;;;;5020496;28;20239;-42
2022/09/20 01:56:24;;;;;;;2.30;1.85;;;15.60;52.60;;;;;;5034664;28;20192;-42
2022/09/20 01:59:16;;;;;;;2.50;1.70;;;15.70;52.70;;;;;;5035069;28;20196;-42
2022/09/20 02:02:06;;;;;;;2.45;1.40;;;15.60;52.60;;;;;;5034666;28;20273;-42
2022/09/20 02:04:55;;;;;;;3.50;2.38;;;15.70;52.70;;;;;;5035403;28;20255;-42
2022/09/20 02:07:44;;;;;;;2.45;1.70;;;15.60;52.70;;;;;;5034274;28;20170;-42
2022/09/20 02:10:32;;;;;;;3.47;2.33;;;15.70;52.70;;;;;;5035068;28;20177;-42
2022/09/20 02:13:03;;;;;;;3.00;1.92;;;15.70;52.60;;;;;;5035194;28;20199;-42
2022/09/20 02:15:37;;;;;;;3.45;2.40;;;15.60;52.60;;;;;;5034747;28;20164;-42
2022/09/20 02:18:16;;;;;;;2.50;1.90;;;15.60;52.50;;;;;;5034808;28;20237;-42
2022/09/20 02:20:53;;;;;;;2.50;2.15;;;15.60;52.60;;;;;;5034773;28;20646;-42
2022/09/20 02:23:37;;;;;;;3.70;1.80;;;15.60;52.50;;;;;;5034748;28;20580;-42
2022/09/20 02:26:35;;;;;;;2.25;1.73;;;15.50;52.50;;;;;;5033948;28;20178;-42
2022/09/20 02:29:11;;;;;;;2.38;1.15;;;15.50;52.60;;;;;;5034605;28;20197;-42
2022/09/20 02:32:02;;;;;;;2.78;1.80;;;15.50;52.70;;;;;;5034566;28;20259;-42
2022/09/20 02:34:55;;;;;;;2.90;1.73;;;15.60;52.50;;;;;;5034493;28;20158;-42
2022/09/20 02:37:45;;;;;;;5.90;2.30;;;15.50;52.60;;;;;;5033995;28;20224;-42
2022/09/20 02:40:32;;;;;;;3.08;2.67;;;15.50;52.70;;;;;;5023690;28;20205;-41
2022/09/20 02:43:16;;;;;;;1.77;1.58;;;15.50;52.80;;;;;;5034370;28;20236;-41
2022/09/20 02:45:51;;;;;;;5.03;2.30;;;15.50;52.80;;;;;;5033840;28;20246;-41
2022/09/20 02:48:23;;;;;;;3.05;2.00;;;15.50;52.80;;;;;;5034155;28;20580;-42
2022/09/20 02:51:02;;;;;;;3.15;1.90;;;15.50;52.80;;;;;;5034220;28;20213;-40
2022/09/20 02:53:53;;;;;;;2.22;2.03;;;15.50;52.80;;;;;;5033296;28;20154;-41
2022/09/20 02:56:35;;;;;;;3.05;1.95;;;15.50;52.80;;;;;;5033576;28;20561;-42
2022/09/20 02:59:07;;;;;;;4.20;2.17;;;15.50;52.70;;;;;;5034039;28;20194;-41
2022/09/20 03:02:03;;;;;;;5.07;2.25;;;15.50;52.70;;;;;;5033888;28;20257;-41
2022/09/20 03:04:52;;;;;;;5.30;2.17;;;15.50;52.80;;;;;;5034442;28;20205;-42
2022/09/20 03:07:36;;;;;;;2.25;1.85;;;15.50;52.80;;;;;;5033433;28;20196;-41
2022/09/20 03:10:12;;;;;;;2.15;1.50;;;15.50;52.60;;;;;;5033875;28;20182;-42
2022/09/20 03:13:08;;;;;;;2.70;1.90;;;15.50;52.70;;;;;;5033845;28;20169;-41
2022/09/20 03:16:06;;;;;;;6.30;2.35;;;15.50;52.70;;;;;;5033139;28;20209;-41
2022/09/20 03:18:53;;;;;;;2.50;2.25;;;15.50;52.70;;;;;;5019583;28;20275;-41
2022/09/20 03:21:25;;;;;;;4.60;2.50;;;15.50;52.70;;;;;;5033647;28;20209;-41
2022/09/20 03:24:09;;;;;;;4.95;2.15;;;15.50;52.80;;;;;;5033920;28;20162;-42
2022/09/20 03:27:04;;;;;;;4.53;2.60;;;15.50;52.70;;;;;;5033005;28;20162;-40
2022/09/20 03:30:01;;;;;;;6.35;3.22;;;15.50;52.70;;;;;;5033283;28;20668;-41
2022/09/20 03:32:55;;;;;;;6.22;3.08;;;15.50;52.50;;;;;;4989316;28;20222;-42
2022/09/20 03:35:47;;;;;;;9.48;3.90;;;15.50;52.60;;;;;;5033414;28;20147;-41
2022/09/20 03:38:34;;;;;;;5.57;2.65;;;15.50;52.40;;;;;;5033297;28;20193;-40
2022/09/20 03:41:24;;;;;;;4.90;2.97;;;15.40;52.50;;;;;;5033583;28;20253;-42
2022/09/20 03:43:55;;;;;;;3.90;2.47;;;15.40;52.50;;;;;;5033241;28;20165;-41
2022/09/20 03:46:41;;;;;;;5.35;2.58;;;15.30;52.40;;;;;;5032550;28;20166;-42
2022/09/20 03:49:34;;;;;;;3.88;2.50;;;15.30;52.40;;;;;;5032576;28;20201;-41
2022/09/20 03:52:27;;;;;;;5.25;1.80;;;15.30;52.40;;;;;;5033030;28;20297;-41
2022/09/20 03:55:25;;;;;;;6.95;2.40;;;15.30;52.60;;;;;;5033077;28;20642;-41
2022/09/20 03:58:26;;;;;;;4.32;2.83;;;15.30;52.50;;;;;;5032484;28;20154;-41
2022/09/20 04:01:04;;;;;;;3.40;2.53;;;15.30;52.60;;;;;;5020005;28;20177;-42
2022/09/20 04:03:44;;;;;;;2.80;2.50;;;15.30;53.30;;;;;;5033125;28;20186;-41
2022/09/20 04:06:47;;;;;;;3.10;2.50;;;15.30;52.60;;;;;;5032294;28;20169;-41
2022/09/20 04:09:28;;;;;;;4.30;2.65;;;15.30;52.50;;;;;;5032701;28;20192;-41
2022/09/20 04:12:19;;;;;;;11.98;3.13;;;15.30;52.50;;;;;;5032577;28;20213;-41
2022/09/20 04:14:56;;;;;;;6.65;3.10;;;15.30;52.50;;;;;;5032853;28;20174;-40
2022/09/20 04:17:26;;;;;;;4.45;3.33;;;15.30;52.60;;;;;;5032097;28;20166;-40
2022/09/20 04:20:40;;;;;;;6.45;3.55;;;15.30;52.70;;;;;;5032459;28;20597;-42
2022/09/20 04:23:43;;;;;;;3.92;3.63;;;15.30;52.70;;;;;;4952148;29;20255;-41
2022/09/20 04:26:09;;;;;;;5.43;4.03;;;15.40;52.70;;;;;;4951642;29;20549;-40
2022/09/20 04:28:47;;;;;;;5.82;3.72;;;15.40;52.90;;;;;;4952000;29;20206;-42
2022/09/20 04:31:41;;;;;;;6.00;4.30;;;15.40;52.90;;;;;;4952515;29;20192;-42
2022/09/20 04:36:27;;;;;;;7.10;3.53;;;15.40;52.80;;;;;;4951991;29;20684;-42
2022/09/20 04:37:32;;;;;;;6.28;3.83;;;15.40;52.80;;;;;;4951159;28;20176;-43
2022/09/20 04:40:50;;;;;;;8.13;4.03;;;15.60;52.90;;;;;;4952087;28;20181;-42
2022/09/20 04:44:03;;;;;;;8.50;4.47;;;15.40;52.90;;;;;;4935741;29;20660;-42
2022/09/20 04:46:51;;;;;;;4.85;4.25;;;15.40;52.60;;;;;;4951208;29;20192;-42
2022/09/20 04:49:25;;;;;;;9.15;5.43;;;15.40;52.80;;;;;;4951753;29;20211;-43
2022/09/20 04:52:09;;;;;;;5.07;4.10;;;15.40;52.80;;;;;;4951618;29;20200;-43
2022/09/20 04:55:12;;;;;;;7.35;5.20;;;15.40;52.80;;;;;;5015061;28;20828;-43
2022/09/20 04:57:40;;;;;;;4.65;3.90;;;15.40;52.70;;;;;;5031458;28;20633;-42
2022/09/20 05:00:11;;;;;;;5.10;4.38;;;15.40;52.90;;;;;;5032242;28;20610;-42
2022/09/20 05:02:46;;;;;;;7.90;4.93;;;15.40;52.90;;;;;;5031995;28;20150;-43
2022/09/20 05:05:40;;;;;;;6.65;4.53;;;15.40;53.00;;;;;;5031920;28;20530;-43
2022/09/20 05:08:43;;;;;;;9.15;5.78;;;15.40;52.80;;;;;;5031762;28;20697;-43
2022/09/20 05:11:29;;;;;;;6.85;5.07;;;15.40;52.90;;;;;;5031800;28;20193;-41
2022/09/20 05:14:27;;;;;;;8.20;3.90;;;15.40;52.90;;;;;;5031820;28;20614;-42
2022/09/20 05:17:11;;;;;;;9.77;4.10;;;15.50;52.90;;;;;;5031817;28;20182;-43
2022/09/20 05:20:13;;;;;;;6.05;5.18;;;15.40;52.90;;;;;;5035751;28;20263;-41
2022/09/20 05:23:23;;;;;;;6.05;4.18;;;15.50;53.10;;;;;;5035963;28;20571;-43
2022/09/20 05:25:51;;;;;;;6.25;4.60;;;15.50;53.10;;;;;;4954775;29;20207;-42
2022/09/20 05:28:27;;;;;;;6.45;5.47;;;15.50;53.10;;;;;;5020371;28;20210;-41
2022/09/20 05:31:21;;;;;;;5.22;4.47;;;15.50;53.70;;;;;;5035599;28;20263;-41
2022/09/20 05:34:13;;;;;;;7.20;4.15;;;15.50;52.80;;;;;;5035666;28;20632;-42
2022/09/20 05:37:00;;;;;;;6.93;4.15;;;15.50;52.80;;;;;;5035044;28;20166;-42
2022/09/20 05:39:37;;;;;;;6.30;4.90;;;15.40;52.70;;;;;;5035364;28;20217;-42
2022/09/20 05:42:22;;;;;;;10.48;5.97;;;15.30;52.80;;;;;;5035464;28;20626;-43
2022/09/20 05:45:06;;;;;;;10.25;5.78;;;15.40;52.80;;;;;;5035501;28;20649;-43
2022/09/20 05:47:53;;;;;;;9.25;6.22;;;15.40;53.00;;;;;;5034981;28;20158;-43
2022/09/20 05:50:44;;;;;;;9.60;6.53;;;15.40;53.00;;;;;;5035236;28;20633;-42
2022/09/20 05:53:48;;;;;;;9.82;6.35;;;15.40;52.80;;;;;;5035281;28;20245;-42
2022/09/20 05:56:17;;;;;;;10.18;6.35;;;15.40;52.70;;;;;;5034942;28;20250;-42
2022/09/20 05:58:52;;;;;;;9.05;6.50;;;15.40;52.80;;;;;;5035506;28;20205;-41
2022/09/20 06:01:31;;;;;;;8.48;5.60;;;15.40;52.90;;;;;;5035166;28;20225;-42
2022/09/20 06:04:04;;;;;;;10.27;6.85;;;15.40;53.00;;;;;;5035040;28;20532;-42
2022/09/20 06:06:42;;;;;;;8.95;6.03;;;15.50;53.10;;;;;;5034838;28;20181;-42
2022/09/20 06:09:32;;;;;;;11.25;6.45;;;15.50;53.00;;;;;;5034943;28;20186;-41
2022/09/20 06:12:34;;;;;;;12.13;6.68;;;15.50;52.80;;;;;;5034863;28;20689;-41
2022/09/20 06:15:45;;;;;;;11.05;8.18;;;15.40;52.70;;;;;;5034888;28;20177;-42
2022/09/20 06:18:43;;;;;;;13.13;7.28;;;15.40;52.80;;;;;;5030601;28;20573;-43
2022/09/20 06:21:33;;;;;;;10.63;7.38;;;15.50;53.10;;;;;;5035065;28;20200;-41
2022/09/20 06:24:01;;;;;;;8.45;5.65;;;15.50;52.90;;;;;;5034811;28;20201;-42
2022/09/20 06:26:33;;;;;;;10.90;6.78;;;15.50;53.00;;;;;;5034078;28;20177;-41
2022/09/20 06:29:05;;;;;;;8.07;6.80;;;15.50;53.20;;;;;;5034680;28;20284;-42
2022/09/20 06:31:31;;;;;;;14.40;7.50;;;15.60;53.30;;;;;;5034528;28;20200;-42
2022/09/20 06:34:06;;;;;;;10.45;9.23;;;15.60;53.20;;;;;;5034370;28;20572;-41
2022/09/20 06:42:15;;;;;;;12.45;7.93;;;15.80;53.30;;;;;;5034291;28;20585;-42
2022/09/20 06:44:42;;;;;;;17.43;7.93;;;15.80;53.30;;;;;;5034356;28;20170;-41
2022/09/20 06:47:12;;;;;;;9.32;6.63;;;15.80;53.50;;;;;;5033596;28;20181;-42
2022/09/20 06:49:40;;;;;;;7.22;6.15;;;15.80;53.40;;;;;;5034198;28;20198;-43
2022/09/20 06:52:19;;;;;;;10.82;6.25;;;15.90;53.50;;;;;;5034184;28;20608;-42
2022/09/20 06:54:47;;;;;;;7.72;6.35;;;16.00;53.30;;;;;;5034174;28;20613;-42
2022/09/20 06:57:36;;;;;;;8.15;6.15;;;15.90;53.10;;;;;;5033428;28;20174;-41
2022/09/20 07:00:05;;;;;;;8.32;6.15;;;16.00;52.80;;;;;;5034145;28;20208;-40
2022/09/20 07:02:30;;;;;;;9.20;7.40;;;16.00;53.00;;;;;;5033939;28;20593;-42
2022/09/20 07:04:58;;;;;;;11.70;7.37;;;16.10;53.20;;;;;;5033985;28;20208;-43
2022/09/20 07:07:24;;;;;;;7.88;5.75;;;16.10;53.00;;;;;;5033010;28;20538;-42
2022/09/20 07:09:50;;;;;;;9.60;6.67;;;16.10;53.20;;;;;;5033707;28;20208;-42
2022/09/20 07:12:15;;;;;;;8.30;5.30;;;16.10;52.80;;;;;;5033642;28;20945;-42
2022/09/20 07:14:43;;;;;;;11.57;7.00;;;16.10;52.80;;;;;;5033919;28;20201;-42
2022/09/20 07:17:09;;;;;;;11.00;6.65;;;16.80;53.10;;;;;;5033103;28;20439;-42
2022/09/20 07:19:35;;;;;;;8.53;6.30;;;16.10;52.80;;;;;;5033529;28;20221;-42
2022/09/20 07:22:01;;;;;;;8.90;6.05;;;16.00;52.60;;;;;;5033605;28;20413;-42
2022/09/20 07:24:31;;;;;;;14.35;7.65;;;16.00;52.70;;;;;;5033618;28;20178;-41
2022/09/20 07:27:00;;;;;;;9.38;6.00;;;16.00;52.60;;;;;;5032943;28;20166;-42
2022/09/20 07:29:27;;;;;;;11.93;8.20;;;16.10;52.80;;;;;;5033533;28;20660;-41
2022/09/20 07:31:53;;;;;;;7.30;6.30;;;16.00;52.70;;;;;;5033315;28;20202;-41
2022/09/20 07:34:19;;;;;;;17.98;8.55;;;16.00;52.60;;;;;;5033285;28;20642;-42
2022/09/20 07:36:49;;;;;;;12.93;8.27;;;16.10;53.30;;;;;;5032777;28;20177;-43
2022/09/20 07:39:15;;;;;;;12.98;8.05;;;16.00;52.50;;;;;;5032978;28;20852;-42
2022/09/20 07:41:44;;;;;;;10.38;7.63;;;16.10;52.30;;;;;;5032993;28;20618;-43
2022/09/20 07:44:26;;;;;;;14.10;8.00;;;16.00;52.30;;;;;;5033151;28;20174;-42
2022/09/20 07:46:57;;;;;;;11.02;8.20;;;16.00;52.30;;;;;;5032486;28;20561;-41
2022/09/20 07:49:25;;;;;;;12.13;8.20;;;16.00;52.70;;;;;;5033199;28;20256;-42
2022/09/20 07:51:52;;;;;;;10.60;7.50;;;16.00;52.50;;;;;;5033025;28;20208;-41
2022/09/20 07:54:18;;;;;;;9.70;8.70;;;16.10;52.60;;;;;;5032944;28;20218;-42
2022/09/20 07:56:45;;;;;;;14.18;8.57;;;16.10;52.70;;;;;;5032576;28;20189;-42
2022/09/20 07:59:12;;;;;;;11.13;8.18;;;16.10;52.60;;;;;;5032801;28;20694;-42
2022/09/20 08:01:39;;;;;;;12.68;8.90;;;16.10;52.40;;;;;;5033082;28;20186;-42
2022/09/20 08:04:06;;;;;;;12.48;8.60;;;16.00;52.30;;;;;;5032825;28;20576;-41
2022/09/20 08:06:34;;;;;;;14.82;8.93;;;16.10;52.60;;;;;;5032132;28;20195;-42
2022/09/20 08:09:00;;;;;;;17.55;8.85;;;16.10;52.50;;;;;;5032609;28;20194;-41
2022/09/20 08:11:28;;;;;;;13.33;9.13;;;16.10;52.80;;;;;;5032563;28;20221;-42
2022/09/20 08:13:55;;;;;;;13.70;8.65;;;16.10;52.80;;;;;;5032819;28;20281;-42
2022/09/20 08:16:22;;;;;;;10.95;8.23;;;16.20;52.80;;;;;;5032289;28;20308;-41
2022/09/20 08:18:56;;;;;;;9.70;7.25;;;16.20;52.80;;;;;;5032404;28;20193;-42
2022/09/20 08:21:33;;;;;;;10.38;7.72;;;16.20;52.90;;;;;;5032658;28;20275;-42
2022/09/20 08:23:59;;;;;;;12.82;6.97;;;16.20;52.70;;;;;;5032449;28;20189;-41
2022/09/20 08:26:27;;;;;;;11.98;8.98;;;16.20;52.70;;;;;;5031748;28;20182;-41
2022/09/20 08:28:55;;;;;;;12.45;7.78;;;16.20;52.70;;;;;;5032386;28;20550;-42
2022/09/20 08:31:26;;;;;;;11.10;8.07;;;16.30;52.70;;;;;;5032317;28;20335;-41
2022/09/20 08:33:53;;;;;;;11.20;8.43;;;16.20;51.90;;;;;;5032422;28;20189;-42
2022/09/20 08:36:22;;;;;;;11.15;7.45;;;16.20;52.40;;;;;;5031977;28;20182;-41
2022/09/20 08:38:48;;;;;;;14.27;8.63;;;16.20;52.70;;;;;;5032212;28;20193;-43
2022/09/20 08:41:25;;;;;;;11.73;8.80;;;16.30;53.10;;;;;;5032208;28;20183;-43
2022/09/20 08:43:56;;;;;;;16.08;7.90;;;16.50;53.10;;;;;;5032503;28;20196;-41
2022/09/20 08:46:28;;;;;;;9.23;6.65;;;16.50;52.80;;;;;;5031474;28;20542;-43
2022/09/20 08:48:56;;;;;;;14.48;6.50;;;16.50;52.80;;;;;;5014886;28;20266;-42
2022/09/20 08:51:29;;;;;;;14.40;7.13;;;16.60;52.40;;;;;;5031320;28;20229;-41
2022/09/20 08:53:57;;;;;;;9.65;6.03;;;16.60;52.20;;;;;;5032225;28;20174;-43
2022/09/20 08:56:28;;;;;;;10.60;6.28;;;16.70;51.80;;;;;;5031770;28;20208;-42
2022/09/20 08:58:58;;;;;;;11.15;5.75;;;16.70;51.20;;;;;;5031922;28;20186;-42
2022/09/20 09:01:28;;;;;;;8.13;5.82;;;16.60;50.90;;;;;;5032286;28;20586;-41
2022/09/20 09:04:13;;;;;;;6.38;5.78;;;16.70;51.40;;;;;;5031889;28;20182;-43
2022/09/20 09:06:39;;;;;;;12.57;7.70;;;16.70;51.00;;;;;;5031384;28;20645;-43
2022/09/20 09:09:06;;;;;;;5.10;4.60;;;16.70;50.80;;;;;;5031970;28;20197;-43
2022/09/20 09:11:32;;;;;;;6.90;5.57;;;16.70;50.50;;;;;;5031924;28;20205;-42
2022/09/20 09:14:05;;;;;;;10.10;4.95;;;16.70;50.20;;;;;;5031936;28;20162;-41
2022/09/20 09:16:33;;;;;;;6.40;5.00;;;16.70;50.60;;;;;;5031211;28;20644;-42
2022/09/20 09:19:26;;;;;;;5.50;4.90;;;16.70;51.30;;;;;;5031726;28;20554;-42
2022/09/20 09:21:57;;;;;;;12.88;5.63;;;16.80;50.90;;;;;;5031870;28;20170;-42
2022/09/20 09:24:24;;;;;;;6.05;5.10;;;16.80;51.00;;;;;;5031834;28;20257;-41
2022/09/20 09:27:12;;;;;;;10.60;7.00;;;16.80;51.30;;;;;;5031137;28;20197;-41
2022/09/20 09:29:51;;;;;;;6.85;6.18;;;16.90;51.30;;;;;;5031796;28;20289;-43
2022/09/20 09:32:22;;;;;;;9.52;5.97;;;16.80;50.80;;;;;;5031654;28;20220;-41
2022/09/20 09:34:48;;;;;;;9.27;6.05;;;16.80;51.00;;;;;;5032066;28;20154;-42
2022/09/20 09:37:29;;;;;;;8.40;6.18;;;16.90;51.70;;;;;;5031096;28;20229;-42
2022/09/20 09:40:11;;;;;;;10.45;6.85;;;17.10;52.00;;;;;;5031635;28;20723;-43
2022/09/20 09:42:51;;;;;;;7.68;5.57;;;17.10;51.10;;;;;;5031694;28;20184;-42
2022/09/20 09:45:31;;;;;;;8.20;5.85;;;17.10;51.10;;;;;;5031550;28;20266;-42
2022/09/20 09:47:58;;;;;;;8.68;6.28;;;17.20;50.90;;;;;;5031507;28;20202;-42
2022/09/20 09:50:32;;;;;;;9.30;6.80;;;17.20;50.60;;;;;;5031558;28;20542;-42
2022/09/20 09:53:21;;;;;;;8.25;6.40;;;17.20;51.10;;;;;;5031476;28;20637;-43
2022/09/20 09:56:05;;;;;;;11.45;6.50;;;17.20;50.70;;;;;;5020648;28;20182;-42
2022/09/20 09:58:46;;;;;;;8.45;6.78;;;17.00;50.40;;;;;;5031464;28;20190;-42
2022/09/20 10:01:47;;;;;;;8.73;5.75;;;17.10;51.00;;;;;;5031527;28;20622;-43
2022/09/20 10:04:27;;;;;;;9.50;6.05;;;17.20;51.30;;;;;;5023288;28;20232;-43
2022/09/20 10:07:09;;;;;;;7.50;5.72;;;17.20;50.80;;;;;;5034542;28;20565;-43
2022/09/20 10:09:56;;;;;;;8.45;5.30;;;17.30;51.80;;;;;;5035016;28;20200;-43
2022/09/20 10:12:37;;;;;;;9.43;5.10;;;17.20;49.80;;;;;;5034942;28;20653;-41
2022/09/20 10:15:13;;;;;;;5.03;4.30;;;17.20;49.90;;;;;;5034960;28;20213;-43
2022/09/20 10:17:51;;;;;;;6.53;4.82;;;17.20;50.00;;;;;;5034060;28;20648;-43
2022/09/20 10:20:39;;;;;;;6.72;4.18;;;17.20;49.50;;;;;;5034783;28;20177;-42
2022/09/20 10:23:46;;;;;;;5.10;4.00;;;17.20;49.40;;;;;;5034696;28;20170;-42
2022/09/20 10:26:44;;;;;;;6.03;4.50;;;17.30;49.90;;;;;;4996584;28;20200;-42
2022/09/20 10:29:38;;;;;;;5.95;3.95;;;17.50;50.60;;;;;;5034596;28;20190;-42
2022/09/20 10:32:22;;;;;;;7.10;3.28;;;17.60;50.50;;;;;;5034528;28;20736;-42
2022/09/20 10:34:59;;;;;;;3.20;2.90;;;17.70;50.40;;;;;;5034581;28;20550;-43
2022/09/20 10:37:39;;;;;;;3.78;2.72;;;17.90;50.70;;;;;;5033872;28;20170;-43
2022/09/20 10:43:13;;;;;;;5.35;4.05;;;18.00;49.00;;;;;;5034500;28;20566;-43
2022/09/20 10:43:47;;;;;;;4.35;3.88;;;18.00;49.00;;;;;;5034655;28;20177;-42
2022/09/20 10:46:31;;;;;;;5.35;3.45;;;18.00;48.20;;;;;;5033838;28;20163;-43
2022/09/20 10:49:17;;;;;;;5.68;4.43;;;18.00;48.30;;;;;;5034262;28;20190;-42
2022/09/20 10:51:52;;;;;;;4.63;3.50;;;18.10;48.60;;;;;;5034124;28;20539;-42
2022/09/20 10:54:37;;;;;;;4.40;4.00;;;18.10;48.60;;;;;;5034167;28;20150;-42
2022/09/20 10:57:40;;;;;;;11.35;4.68;;;18.10;48.00;;;;;;5033567;28;20178;-43
2022/09/20 11:00:38;;;;;;;9.85;4.43;;;18.10;48.40;;;;;;4989991;28;20271;-43
2022/09/20 11:03:41;;;;;;;4.35;2.80;;;18.20;48.90;;;;;;5034177;28;20216;-42
2022/09/20 11:06:25;;;;;;;5.85;3.08;;;18.20;48.40;;;;;;5033378;28;20273;-42
2022/09/20 11:08:55;;;;;;;3.95;2.92;;;18.30;48.70;;;;;;5034191;28;20281;-43
2022/09/20 11:11:25;;;;;;;3.55;2.65;;;18.40;48.70;;;;;;5034133;28;20263;-42
2022/09/20 11:14:14;;;;;;;3.17;2.50;;;18.40;48.10;;;;;;5034146;28;20181;-42
2022/09/20 11:16:59;;;;;;;7.90;3.60;;;18.50;48.70;;;;;;5033057;28;20170;-42
2022/09/20 11:19:37;;;;;;;4.18;3.50;;;18.50;48.30;;;;;;5033543;28;20209;-42
2022/09/20 11:22:31;;;;;;;4.43;3.17;;;18.60;48.10;;;;;;5033674;28;20181;-42
2022/09/20 11:25:05;;;;;;;5.80;2.80;;;18.60;46.20;;;;;;5034056;28;20185;-42
2022/09/20 11:27:51;;;;;;;2.90;2.60;;;18.60;46.60;;;;;;5033337;28;20169;-42
2022/09/20 11:30:19;;;;;;;2.75;2.05;;;18.70;46.20;;;;;;5033502;28;20170;-43
2022/09/20 11:33:11;;;;;;;4.90;1.92;;;18.70;46.20;;;;;;5033402;28;20600;-42
2022/09/20 11:35:59;;;;;;;3.08;2.20;;;18.80;45.90;;;;;;5032770;28;20174;-42
2022/09/20 11:38:39;;;;;;;4.45;1.85;;;18.90;45.30;;;;;;5033120;28;20186;-43
2022/09/20 11:41:14;;;;;;;2.35;2.15;;;19.00;46.10;;;;;;5033211;28;20208;-42
2022/09/20 11:43:43;;;;;;;6.78;2.85;;;19.10;46.60;;;;;;5033293;28;20162;-42
2022/09/20 11:46:12;;;;;;;2.85;2.40;;;19.20;45.30;;;;;;5032635;28;20186;-43
2022/09/20 11:48:47;;;;;;;3.95;2.88;;;19.20;45.40;;;;;;5032991;28;20204;-43
2022/09/20 11:51:15;;;;;;;4.30;2.58;;;19.20;45.00;;;;;;5033246;28;20307;-43
2022/09/20 11:54:10;;;;;;;7.47;3.85;;;19.10;45.60;;;;;;5033281;28;20256;-43
2022/09/20 11:56:37;;;;;;;3.38;2.65;;;19.10;45.40;;;;;;5003492;28;20201;-43
2022/09/20 11:59:18;;;;;;;6.30;2.45;;;19.10;46.00;;;;;;5032857;28;20182;-42
2022/09/20 12:01:44;;;;;;;4.25;2.50;;;19.10;46.00;;;;;;5033211;28;20173;-43
2022/09/20 12:04:23;;;;;;;4.13;2.50;;;19.20;46.10;;;;;;5032942;28;20706;-43
2022/09/20 12:07:21;;;;;;;4.75;2.90;;;19.40;46.30;;;;;;5032548;28;20389;-43
2022/09/20 12:09:55;;;;;;;2.85;2.13;;;19.70;45.40;;;;;;5025787;28;20194;-42
2022/09/20 12:12:29;;;;;;;2.75;2.10;;;19.80;43.70;;;;;;5032688;28;20202;-43
2022/09/20 12:14:57;;;;;;;5.97;1.88;;;20.10;44.70;;;;;;5032901;28;20185;-42
2022/09/20 12:18:03;;;;;;;2.30;1.45;;;20.20;44.20;;;;;;5032057;28;20169;-43
2022/09/20 12:20:37;;;;;;;2.78;2.22;;;20.30;42.80;;;;;;4952144;29;20195;-42
2022/09/20 12:23:40;;;;;;;3.72;2.20;;;20.40;43.70;;;;;;4952299;29;20191;-42
2022/09/20 12:26:09;;;;;;;16.33;2.58;;;20.60;44.10;;;;;;4951502;28;20184;-42
2022/09/20 12:28:50;;;;;;;3.65;1.48;;;20.60;43.10;;;;;;4952150;29;20196;-42
2022/09/20 12:31:21;;;;;;;3.03;2.08;;;20.50;41.50;;;;;;4951966;29;20647;-42
2022/09/20 12:34:23;;;;;;;3.22;2.60;;;20.30;40.70;;;;;;4952144;29;20208;-42
2022/09/20 12:36:54;;;;;;;3.25;2.22;;;20.30;41.40;;;;;;4951371;29;20172;-42
2022/09/20 12:39:27;;;;;;;4.45;3.13;;;20.40;43.00;;;;;;4951906;29;20201;-42
2022/09/20 12:42:02;;;;;;;3.00;2.70;;;20.50;43.40;;;;;;4952031;29;20190;-43
2022/09/20 12:44:48;;;;;;;4.05;2.95;;;20.60;41.90;;;;;;4951878;29;20355;-42
2022/09/20 12:47:24;;;;;;;5.82;2.90;;;20.80;41.30;;;;;;4951276;29;20305;-43
2022/09/20 12:55:49;;;;;;;4.78;2.95;;;21.20;42.00;;;;;;4987311;28;20293;-42
2022/09/20 12:58:14;;;;;;;6.40;2.50;;;21.40;41.90;;;;;;5032085;28;20281;-42
2022/09/20 13:00:47;;;;;;;3.13;2.17;;;21.60;40.50;;;;;;5032136;28;20260;-42
2022/09/20 13:03:36;;;;;;;2.55;2.05;;;21.70;38.60;;;;;;5032307;28;20533;-43
2022/09/20 13:06:04;;;;;;;4.50;2.20;;;21.90;39.30;;;;;;5031474;28;20254;-42
2022/09/20 13:08:31;;;;;;;3.40;2.63;;;21.90;37.70;;;;;;5032170;28;20543;-42
2022/09/20 13:11:18;;;;;;;7.73;2.63;;;21.90;37.70;;;;;;5031856;28;20507;-42
2022/09/20 13:13:59;;;;;;;5.17;1.97;;;21.90;38.90;;;;;;5032077;28;20393;-42
2022/09/20 13:16:37;;;;;;;3.93;2.00;;;22.10;38.10;;;;;;5031540;28;20403;-43
2022/09/20 13:19:08;;;;;;;3.43;1.80;;;22.10;36.70;;;;;;5031654;28;20522;-42
2022/09/20 13:21:39;;;;;;;4.23;2.27;;;22.20;37.60;;;;;;5032078;28;20405;-43
2022/09/20 13:24:07;;;;;;;2.90;1.73;;;22.20;36.80;;;;;;5031785;28;20507;-43
2022/09/20 13:26:38;;;;;;;3.23;2.10;;;22.20;36.70;;;;;;5031295;28;20409;-43
2022/09/20 13:29:09;;;;;;;3.90;1.60;;;22.40;36.50;;;;;;5031743;28;20417;-43
2022/09/20 13:31:35;;;;;;;3.83;2.40;;;22.40;38.30;;;;;;5031836;28;20543;-43
2022/09/20 13:34:19;;;;;;;3.00;1.90;;;22.50;37.60;;;;;;5032041;28;20506;-43
2022/09/20 13:36:46;;;;;;;3.10;1.60;;;22.60;38.50;;;;;;5031393;28;20412;-43
2022/09/20 13:39:42;;;;;;;2.97;1.70;;;22.40;39.00;;;;;;5034985;28;20447;-43
2022/09/20 13:42:18;;;;;;;2.97;1.60;;;22.30;38.70;;;;;;5018909;28;20431;-43
2022/09/20 13:44:46;;;;;;;2.90;1.70;;;22.10;38.40;;;;;;5035501;28;20400;-42
2022/09/20 13:47:27;;;;;;;3.90;1.40;;;21.90;38.70;;;;;;5034773;28;20409;-43
2022/09/20 13:50:09;;;;;;;2.90;1.73;;;21.60;38.40;;;;;;5035484;28;20439;-42
2022/09/20 13:52:47;;;;;;;1.90;1.67;;;21.60;39.50;;;;;;5035382;28;20578;-42
2022/09/20 13:55:26;;;;;;;3.20;1.10;;;21.60;40.50;;;;;;5035413;28;20494;-42
2022/09/20 13:57:55;;;;;;;1.40;0.93;;;21.60;38.60;;;;;;5034918;28;20436;-42